<?xml version="1.0" encoding="UTF-8" standalone="no" ?><gpx xmlns="http://www.topografix.com/GPX/1/1" xmlns:gpxx="http://www.garmin.com/xmlschemas/GpxExtensions/v3" xmlns:gpxtpx="http://www.garmin.com/xmlschemas/TrackPointExtension/v1" creator="Foretrex 301" version="1.1" xmlns:xsi="http://www.w3.org/2001/XMLSchema-instance" xsi:schemaLocation="http://www.topografix.com/GPX/1/1 http://www.topografix.com/GPX/1/1/gpx.xsd http://www.garmin.com/xmlschemas/GpxExtensions/v3 http://www.garmin.com/xmlschemas/GpxExtensions/v3/GpxExtensionsv3.xsd"><metadata><link href="http://www.garmin.com"><text>Garmin International</text></link><time>2010-11-10T15:02:35Z</time></metadata><trk><name>ACTIVE LOG: 10 NOV 2010 10:03</name><trkseg><trkpt lat="51.831072" lon="-1.838172"><ele>169.81</ele><time>2010-11-10T10:03:17Z</time></trkpt><trkpt lat="51.831073" lon="-1.838250"><ele>170.29</ele><time>2010-11-10T10:03:33Z</time></trkpt><trkpt lat="51.831026" lon="-1.838424"><ele>169.33</ele><time>2010-11-10T10:03:47Z</time></trkpt><trkpt lat="51.831055" lon="-1.838521"><ele>168.85</ele><time>2010-11-10T10:03:56Z</time></trkpt><trkpt lat="51.831130" lon="-1.838785"><ele>174.14</ele><time>2010-11-10T10:04:13Z</time></trkpt><trkpt lat="51.831202" lon="-1.839001"><ele>179.42</ele><time>2010-11-10T10:04:29Z</time></trkpt><trkpt lat="51.831284" lon="-1.839208"><ele>180.38</ele><time>2010-11-10T10:04:46Z</time></trkpt><trkpt lat="51.831379" lon="-1.839442"><ele>178.46</ele><time>2010-11-10T10:05:02Z</time></trkpt><trkpt lat="51.831401" lon="-1.839516"><ele>178.94</ele><time>2010-11-10T10:05:07Z</time></trkpt><trkpt lat="51.831452" lon="-1.839523"><ele>180.87</ele><time>2010-11-10T10:05:12Z</time></trkpt><trkpt lat="51.831672" lon="-1.839281"><ele>176.06</ele><time>2010-11-10T10:05:31Z</time></trkpt><trkpt lat="51.831748" lon="-1.839269"><ele>175.10</ele><time>2010-11-10T10:05:40Z</time></trkpt><trkpt lat="51.831661" lon="-1.839327"><ele>174.14</ele><time>2010-11-10T10:05:52Z</time></trkpt><trkpt lat="51.831483" lon="-1.839514"><ele>172.69</ele><time>2010-11-10T10:06:11Z</time></trkpt><trkpt lat="51.831540" lon="-1.839800"><ele>174.62</ele><time>2010-11-10T10:06:29Z</time></trkpt><trkpt lat="51.831601" lon="-1.840051"><ele>176.06</ele><time>2010-11-10T10:06:44Z</time></trkpt><trkpt lat="51.831743" lon="-1.839859"><ele>176.54</ele><time>2010-11-10T10:07:00Z</time></trkpt><trkpt lat="51.831890" lon="-1.839611"><ele>175.10</ele><time>2010-11-10T10:07:18Z</time></trkpt><trkpt lat="51.831992" lon="-1.839423"><ele>173.17</ele><time>2010-11-10T10:07:32Z</time></trkpt><trkpt lat="51.832140" lon="-1.839145"><ele>176.06</ele><time>2010-11-10T10:07:52Z</time></trkpt><trkpt lat="51.832238" lon="-1.839012"><ele>177.50</ele><time>2010-11-10T10:08:03Z</time></trkpt><trkpt lat="51.832155" lon="-1.838699"><ele>178.46</ele><time>2010-11-10T10:08:21Z</time></trkpt><trkpt lat="51.832031" lon="-1.838305"><ele>178.46</ele><time>2010-11-10T10:08:44Z</time></trkpt><trkpt lat="51.831897" lon="-1.837939"><ele>178.94</ele><time>2010-11-10T10:09:07Z</time></trkpt><trkpt lat="51.831758" lon="-1.837640"><ele>179.42</ele><time>2010-11-10T10:09:26Z</time></trkpt><trkpt lat="51.831731" lon="-1.837572"><ele>179.42</ele><time>2010-11-10T10:09:30Z</time></trkpt><trkpt lat="51.831624" lon="-1.837304"><ele>179.90</ele><time>2010-11-10T10:09:47Z</time></trkpt><trkpt lat="51.831480" lon="-1.836930"><ele>179.42</ele><time>2010-11-10T10:10:10Z</time></trkpt><trkpt lat="51.831316" lon="-1.836632"><ele>177.50</ele><time>2010-11-10T10:10:30Z</time></trkpt><trkpt lat="51.831165" lon="-1.836401"><ele>176.06</ele><time>2010-11-10T10:10:47Z</time></trkpt><trkpt lat="51.830962" lon="-1.836049"><ele>172.21</ele><time>2010-11-10T10:11:11Z</time></trkpt><trkpt lat="51.830869" lon="-1.835665"><ele>173.66</ele><time>2010-11-10T10:11:32Z</time></trkpt><trkpt lat="51.830886" lon="-1.835240"><ele>177.02</ele><time>2010-11-10T10:11:53Z</time></trkpt><trkpt lat="51.830891" lon="-1.834970"><ele>178.94</ele><time>2010-11-10T10:12:09Z</time></trkpt><trkpt lat="51.830900" lon="-1.834638"><ele>180.87</ele><time>2010-11-10T10:12:28Z</time></trkpt><trkpt lat="51.830904" lon="-1.834474"><ele>182.31</ele><time>2010-11-10T10:12:42Z</time></trkpt><trkpt lat="51.830938" lon="-1.834389"><ele>183.27</ele><time>2010-11-10T10:12:55Z</time></trkpt><trkpt lat="51.830851" lon="-1.834324"><ele>183.27</ele><time>2010-11-10T10:13:07Z</time></trkpt><trkpt lat="51.830886" lon="-1.834225"><ele>184.23</ele><time>2010-11-10T10:13:20Z</time></trkpt><trkpt lat="51.830893" lon="-1.834030"><ele>184.71</ele><time>2010-11-10T10:13:34Z</time></trkpt><trkpt lat="51.830900" lon="-1.833768"><ele>184.23</ele><time>2010-11-10T10:13:52Z</time></trkpt><trkpt lat="51.830921" lon="-1.833576"><ele>182.31</ele><time>2010-11-10T10:14:06Z</time></trkpt><trkpt lat="51.830944" lon="-1.833498"><ele>183.27</ele><time>2010-11-10T10:14:12Z</time></trkpt><trkpt lat="51.830972" lon="-1.833293"><ele>188.08</ele><time>2010-11-10T10:14:26Z</time></trkpt><trkpt lat="51.830995" lon="-1.833221"><ele>191.44</ele><time>2010-11-10T10:14:38Z</time></trkpt><trkpt lat="51.830989" lon="-1.833078"><ele>193.84</ele><time>2010-11-10T10:14:53Z</time></trkpt><trkpt lat="51.830963" lon="-1.832854"><ele>193.84</ele><time>2010-11-10T10:15:08Z</time></trkpt><trkpt lat="51.830979" lon="-1.832583"><ele>194.80</ele><time>2010-11-10T10:15:26Z</time></trkpt><trkpt lat="51.830983" lon="-1.832485"><ele>195.28</ele><time>2010-11-10T10:15:32Z</time></trkpt><trkpt lat="51.831081" lon="-1.832263"><ele>196.73</ele><time>2010-11-10T10:15:50Z</time></trkpt><trkpt lat="51.831204" lon="-1.832057"><ele>196.25</ele><time>2010-11-10T10:16:06Z</time></trkpt><trkpt lat="51.831313" lon="-1.831914"><ele>196.73</ele><time>2010-11-10T10:16:18Z</time></trkpt><trkpt lat="51.831333" lon="-1.831715"><ele>196.73</ele><time>2010-11-10T10:16:34Z</time></trkpt><trkpt lat="51.831363" lon="-1.831623"><ele>196.73</ele><time>2010-11-10T10:16:51Z</time></trkpt><trkpt lat="51.831379" lon="-1.831606"><ele>196.25</ele><time>2010-11-10T10:17:11Z</time></trkpt><trkpt lat="51.831415" lon="-1.831560"><ele>197.69</ele><time>2010-11-10T10:17:31Z</time></trkpt><trkpt lat="51.831461" lon="-1.831488"><ele>198.17</ele><time>2010-11-10T10:17:41Z</time></trkpt><trkpt lat="51.831566" lon="-1.831301"><ele>199.13</ele><time>2010-11-10T10:17:57Z</time></trkpt><trkpt lat="51.831682" lon="-1.831080"><ele>197.69</ele><time>2010-11-10T10:18:14Z</time></trkpt><trkpt lat="51.831713" lon="-1.831033"><ele>197.21</ele><time>2010-11-10T10:18:26Z</time></trkpt><trkpt lat="51.831799" lon="-1.830822"><ele>197.21</ele><time>2010-11-10T10:18:42Z</time></trkpt><trkpt lat="51.831886" lon="-1.830657"><ele>197.21</ele><time>2010-11-10T10:18:55Z</time></trkpt><trkpt lat="51.831973" lon="-1.830424"><ele>197.69</ele><time>2010-11-10T10:19:11Z</time></trkpt><trkpt lat="51.832042" lon="-1.830259"><ele>197.21</ele><time>2010-11-10T10:19:27Z</time></trkpt><trkpt lat="51.832095" lon="-1.830089"><ele>196.25</ele><time>2010-11-10T10:19:46Z</time></trkpt><trkpt lat="51.832191" lon="-1.829859"><ele>196.25</ele><time>2010-11-10T10:20:03Z</time></trkpt><trkpt lat="51.832289" lon="-1.829613"><ele>195.77</ele><time>2010-11-10T10:20:20Z</time></trkpt><trkpt lat="51.832385" lon="-1.829362"><ele>194.80</ele><time>2010-11-10T10:20:38Z</time></trkpt><trkpt lat="51.832461" lon="-1.829161"><ele>194.32</ele><time>2010-11-10T10:20:52Z</time></trkpt><trkpt lat="51.832574" lon="-1.828876"><ele>195.28</ele><time>2010-11-10T10:21:11Z</time></trkpt><trkpt lat="51.832689" lon="-1.828602"><ele>194.80</ele><time>2010-11-10T10:21:30Z</time></trkpt><trkpt lat="51.832780" lon="-1.828346"><ele>194.32</ele><time>2010-11-10T10:21:47Z</time></trkpt><trkpt lat="51.832912" lon="-1.828017"><ele>194.32</ele><time>2010-11-10T10:22:09Z</time></trkpt><trkpt lat="51.833023" lon="-1.827731"><ele>194.32</ele><time>2010-11-10T10:22:28Z</time></trkpt><trkpt lat="51.833136" lon="-1.827474"><ele>194.32</ele><time>2010-11-10T10:22:47Z</time></trkpt><trkpt lat="51.833247" lon="-1.827213"><ele>193.36</ele><time>2010-11-10T10:23:05Z</time></trkpt><trkpt lat="51.833295" lon="-1.827026"><ele>193.36</ele><time>2010-11-10T10:23:18Z</time></trkpt><trkpt lat="51.833284" lon="-1.827027"><ele>193.36</ele><time>2010-11-10T10:23:37Z</time></trkpt><trkpt lat="51.833292" lon="-1.827023"><ele>192.88</ele><time>2010-11-10T10:23:39Z</time></trkpt><trkpt lat="51.833428" lon="-1.826691"><ele>193.36</ele><time>2010-11-10T10:24:00Z</time></trkpt><trkpt lat="51.833554" lon="-1.826339"><ele>192.88</ele><time>2010-11-10T10:24:22Z</time></trkpt><trkpt lat="51.833640" lon="-1.826005"><ele>194.80</ele><time>2010-11-10T10:24:42Z</time></trkpt><trkpt lat="51.833700" lon="-1.825736"><ele>196.73</ele><time>2010-11-10T10:24:58Z</time></trkpt><trkpt lat="51.833750" lon="-1.825434"><ele>194.32</ele><time>2010-11-10T10:25:16Z</time></trkpt><trkpt lat="51.833789" lon="-1.825205"><ele>191.44</ele><time>2010-11-10T10:25:30Z</time></trkpt><trkpt lat="51.833839" lon="-1.824886"><ele>192.40</ele><time>2010-11-10T10:25:50Z</time></trkpt><trkpt lat="51.833851" lon="-1.824812"><ele>192.40</ele><time>2010-11-10T10:25:55Z</time></trkpt><trkpt lat="51.833868" lon="-1.824777"><ele>191.92</ele><time>2010-11-10T10:25:58Z</time></trkpt><trkpt lat="51.833914" lon="-1.824742"><ele>192.88</ele><time>2010-11-10T10:26:02Z</time></trkpt><trkpt lat="51.833929" lon="-1.824510"><ele>197.21</ele><time>2010-11-10T10:26:17Z</time></trkpt><trkpt lat="51.833959" lon="-1.824199"><ele>199.61</ele><time>2010-11-10T10:26:35Z</time></trkpt><trkpt lat="51.834029" lon="-1.823878"><ele>197.69</ele><time>2010-11-10T10:26:55Z</time></trkpt><trkpt lat="51.834090" lon="-1.823524"><ele>196.25</ele><time>2010-11-10T10:27:14Z</time></trkpt><trkpt lat="51.834118" lon="-1.823402"><ele>195.28</ele><time>2010-11-10T10:27:21Z</time></trkpt><trkpt lat="51.834187" lon="-1.823074"><ele>193.84</ele><time>2010-11-10T10:27:40Z</time></trkpt><trkpt lat="51.834193" lon="-1.823046"><ele>193.84</ele><time>2010-11-10T10:27:42Z</time></trkpt><trkpt lat="51.834195" lon="-1.822986"><ele>194.32</ele><time>2010-11-10T10:27:46Z</time></trkpt><trkpt lat="51.834215" lon="-1.822933"><ele>193.84</ele><time>2010-11-10T10:27:51Z</time></trkpt><trkpt lat="51.834236" lon="-1.822882"><ele>193.84</ele><time>2010-11-10T10:27:55Z</time></trkpt><trkpt lat="51.834250" lon="-1.822603"><ele>193.36</ele><time>2010-11-10T10:28:11Z</time></trkpt><trkpt lat="51.834227" lon="-1.822604"><ele>193.84</ele><time>2010-11-10T10:28:16Z</time></trkpt><trkpt lat="51.834185" lon="-1.822567"><ele>194.80</ele><time>2010-11-10T10:28:29Z</time></trkpt><trkpt lat="51.834283" lon="-1.822433"><ele>193.84</ele><time>2010-11-10T10:28:41Z</time></trkpt><trkpt lat="51.834355" lon="-1.822157"><ele>192.88</ele><time>2010-11-10T10:29:00Z</time></trkpt><trkpt lat="51.834424" lon="-1.821844"><ele>191.44</ele><time>2010-11-10T10:29:20Z</time></trkpt><trkpt lat="51.834508" lon="-1.821479"><ele>190.96</ele><time>2010-11-10T10:29:42Z</time></trkpt><trkpt lat="51.834587" lon="-1.821136"><ele>191.92</ele><time>2010-11-10T10:30:03Z</time></trkpt><trkpt lat="51.834681" lon="-1.820764"><ele>189.52</ele><time>2010-11-10T10:30:25Z</time></trkpt><trkpt lat="51.834771" lon="-1.820412"><ele>189.04</ele><time>2010-11-10T10:30:46Z</time></trkpt><trkpt lat="51.834863" lon="-1.820117"><ele>189.04</ele><time>2010-11-10T10:31:04Z</time></trkpt><trkpt lat="51.834929" lon="-1.819815"><ele>188.56</ele><time>2010-11-10T10:31:22Z</time></trkpt><trkpt lat="51.834969" lon="-1.819488"><ele>188.08</ele><time>2010-11-10T10:31:41Z</time></trkpt><trkpt lat="51.834974" lon="-1.819189"><ele>187.59</ele><time>2010-11-10T10:31:57Z</time></trkpt><trkpt lat="51.834961" lon="-1.818868"><ele>186.63</ele><time>2010-11-10T10:32:17Z</time></trkpt><trkpt lat="51.834944" lon="-1.818864"><ele>187.11</ele><time>2010-11-10T10:32:21Z</time></trkpt><trkpt lat="51.834962" lon="-1.818792"><ele>186.63</ele><time>2010-11-10T10:32:26Z</time></trkpt><trkpt lat="51.834951" lon="-1.818289"><ele>184.23</ele><time>2010-11-10T10:32:51Z</time></trkpt><trkpt lat="51.834936" lon="-1.817934"><ele>183.27</ele><time>2010-11-10T10:33:12Z</time></trkpt><trkpt lat="51.834936" lon="-1.817796"><ele>180.87</ele><time>2010-11-10T10:33:21Z</time></trkpt><trkpt lat="51.834938" lon="-1.817551"><ele>178.46</ele><time>2010-11-10T10:33:35Z</time></trkpt><trkpt lat="51.834943" lon="-1.817434"><ele>178.46</ele><time>2010-11-10T10:33:43Z</time></trkpt><trkpt lat="51.834870" lon="-1.817242"><ele>176.06</ele><time>2010-11-10T10:33:59Z</time></trkpt><trkpt lat="51.834899" lon="-1.817111"><ele>172.69</ele><time>2010-11-10T10:34:14Z</time></trkpt><trkpt lat="51.834947" lon="-1.817075"><ele>170.77</ele><time>2010-11-10T10:34:25Z</time></trkpt><trkpt lat="51.834971" lon="-1.817019"><ele>170.29</ele><time>2010-11-10T10:34:31Z</time></trkpt><trkpt lat="51.835071" lon="-1.816833"><ele>168.85</ele><time>2010-11-10T10:34:48Z</time></trkpt><trkpt lat="51.835217" lon="-1.816668"><ele>167.89</ele><time>2010-11-10T10:35:07Z</time></trkpt><trkpt lat="51.835312" lon="-1.816456"><ele>166.45</ele><time>2010-11-10T10:35:24Z</time></trkpt><trkpt lat="51.835378" lon="-1.816259"><ele>166.45</ele><time>2010-11-10T10:35:38Z</time></trkpt><trkpt lat="51.835420" lon="-1.816077"><ele>166.45</ele><time>2010-11-10T10:35:52Z</time></trkpt><trkpt lat="51.835399" lon="-1.815786"><ele>166.45</ele><time>2010-11-10T10:36:09Z</time></trkpt><trkpt lat="51.835401" lon="-1.815593"><ele>165.00</ele><time>2010-11-10T10:36:22Z</time></trkpt><trkpt lat="51.835370" lon="-1.815243"><ele>165.00</ele><time>2010-11-10T10:36:43Z</time></trkpt><trkpt lat="51.835350" lon="-1.814993"><ele>163.56</ele><time>2010-11-10T10:37:00Z</time></trkpt><trkpt lat="51.835341" lon="-1.814969"><ele>162.60</ele><time>2010-11-10T10:37:13Z</time></trkpt><trkpt lat="51.835355" lon="-1.814981"><ele>162.60</ele><time>2010-11-10T10:37:23Z</time></trkpt><trkpt lat="51.835390" lon="-1.814941"><ele>162.60</ele><time>2010-11-10T10:37:36Z</time></trkpt><trkpt lat="51.835387" lon="-1.814922"><ele>162.60</ele><time>2010-11-10T10:38:00Z</time></trkpt><trkpt lat="51.835417" lon="-1.814872"><ele>163.08</ele><time>2010-11-10T10:38:24Z</time></trkpt><trkpt lat="51.835469" lon="-1.814739"><ele>164.04</ele><time>2010-11-10T10:38:35Z</time></trkpt><trkpt lat="51.835547" lon="-1.814581"><ele>164.52</ele><time>2010-11-10T10:38:51Z</time></trkpt><trkpt lat="51.835614" lon="-1.814429"><ele>165.48</ele><time>2010-11-10T10:39:09Z</time></trkpt><trkpt lat="51.835631" lon="-1.814345"><ele>166.93</ele><time>2010-11-10T10:39:21Z</time></trkpt><trkpt lat="51.835639" lon="-1.814214"><ele>166.45</ele><time>2010-11-10T10:39:33Z</time></trkpt><trkpt lat="51.835685" lon="-1.814054"><ele>167.41</ele><time>2010-11-10T10:39:47Z</time></trkpt><trkpt lat="51.835748" lon="-1.813918"><ele>168.37</ele><time>2010-11-10T10:40:01Z</time></trkpt><trkpt lat="51.835753" lon="-1.813909"><ele>168.37</ele><time>2010-11-10T10:40:02Z</time></trkpt><trkpt lat="51.835767" lon="-1.813876"><ele>168.85</ele><time>2010-11-10T10:40:05Z</time></trkpt><trkpt lat="51.835762" lon="-1.813657"><ele>168.37</ele><time>2010-11-10T10:40:20Z</time></trkpt><trkpt lat="51.835767" lon="-1.813466"><ele>168.85</ele><time>2010-11-10T10:40:34Z</time></trkpt><trkpt lat="51.835775" lon="-1.813208"><ele>168.37</ele><time>2010-11-10T10:40:51Z</time></trkpt><trkpt lat="51.835748" lon="-1.813067"><ele>169.33</ele><time>2010-11-10T10:41:03Z</time></trkpt><trkpt lat="51.835743" lon="-1.813064"><ele>169.33</ele><time>2010-11-10T10:41:04Z</time></trkpt><trkpt lat="51.835739" lon="-1.813051"><ele>169.33</ele><time>2010-11-10T10:41:06Z</time></trkpt><trkpt lat="51.835738" lon="-1.812731"><ele>169.81</ele><time>2010-11-10T10:41:25Z</time></trkpt><trkpt lat="51.835724" lon="-1.812445"><ele>168.37</ele><time>2010-11-10T10:41:43Z</time></trkpt><trkpt lat="51.835700" lon="-1.812285"><ele>167.41</ele><time>2010-11-10T10:41:55Z</time></trkpt><trkpt lat="51.835703" lon="-1.812146"><ele>167.41</ele><time>2010-11-10T10:42:10Z</time></trkpt><trkpt lat="51.835716" lon="-1.812106"><ele>166.93</ele><time>2010-11-10T10:42:25Z</time></trkpt><trkpt lat="51.835722" lon="-1.812063"><ele>166.45</ele><time>2010-11-10T10:42:52Z</time></trkpt><trkpt lat="51.835761" lon="-1.811933"><ele>167.89</ele><time>2010-11-10T10:43:21Z</time></trkpt><trkpt lat="51.835710" lon="-1.811696"><ele>170.77</ele><time>2010-11-10T10:43:38Z</time></trkpt><trkpt lat="51.835707" lon="-1.811427"><ele>171.25</ele><time>2010-11-10T10:43:56Z</time></trkpt><trkpt lat="51.835706" lon="-1.811301"><ele>171.73</ele><time>2010-11-10T10:44:07Z</time></trkpt><trkpt lat="51.835716" lon="-1.811073"><ele>173.17</ele><time>2010-11-10T10:44:23Z</time></trkpt><trkpt lat="51.835735" lon="-1.810838"><ele>173.66</ele><time>2010-11-10T10:44:38Z</time></trkpt><trkpt lat="51.835757" lon="-1.810602"><ele>175.10</ele><time>2010-11-10T10:44:54Z</time></trkpt><trkpt lat="51.835774" lon="-1.810379"><ele>177.50</ele><time>2010-11-10T10:45:11Z</time></trkpt><trkpt lat="51.835778" lon="-1.810357"><ele>177.98</ele><time>2010-11-10T10:45:13Z</time></trkpt><trkpt lat="51.835846" lon="-1.810197"><ele>179.42</ele><time>2010-11-10T10:45:29Z</time></trkpt><trkpt lat="51.835874" lon="-1.810107"><ele>179.42</ele><time>2010-11-10T10:45:45Z</time></trkpt><trkpt lat="51.835803" lon="-1.810078"><ele>178.46</ele><time>2010-11-10T10:45:57Z</time></trkpt><trkpt lat="51.835726" lon="-1.810055"><ele>177.98</ele><time>2010-11-10T10:46:22Z</time></trkpt><trkpt lat="51.835639" lon="-1.809976"><ele>177.98</ele><time>2010-11-10T10:46:36Z</time></trkpt><trkpt lat="51.835598" lon="-1.809877"><ele>178.94</ele><time>2010-11-10T10:46:49Z</time></trkpt><trkpt lat="51.835542" lon="-1.809711"><ele>179.42</ele><time>2010-11-10T10:47:05Z</time></trkpt><trkpt lat="51.835518" lon="-1.809659"><ele>178.94</ele><time>2010-11-10T10:47:11Z</time></trkpt><trkpt lat="51.835451" lon="-1.809478"><ele>178.46</ele><time>2010-11-10T10:47:27Z</time></trkpt><trkpt lat="51.835394" lon="-1.809316"><ele>177.98</ele><time>2010-11-10T10:47:41Z</time></trkpt><trkpt lat="51.835316" lon="-1.809127"><ele>177.50</ele><time>2010-11-10T10:47:57Z</time></trkpt><trkpt lat="51.835218" lon="-1.808948"><ele>177.50</ele><time>2010-11-10T10:48:14Z</time></trkpt><trkpt lat="51.835116" lon="-1.808788"><ele>177.50</ele><time>2010-11-10T10:48:30Z</time></trkpt><trkpt lat="51.835027" lon="-1.808652"><ele>177.50</ele><time>2010-11-10T10:48:45Z</time></trkpt><trkpt lat="51.834937" lon="-1.808526"><ele>178.46</ele><time>2010-11-10T10:48:59Z</time></trkpt><trkpt lat="51.834934" lon="-1.808550"><ele>178.94</ele><time>2010-11-10T10:49:14Z</time></trkpt><trkpt lat="51.834937" lon="-1.808531"><ele>177.98</ele><time>2010-11-10T10:49:20Z</time></trkpt><trkpt lat="51.834989" lon="-1.808337"><ele>178.94</ele><time>2010-11-10T10:49:34Z</time></trkpt><trkpt lat="51.835001" lon="-1.808234"><ele>179.90</ele><time>2010-11-10T10:49:49Z</time></trkpt><trkpt lat="51.834991" lon="-1.808242"><ele>179.90</ele><time>2010-11-10T10:50:15Z</time></trkpt><trkpt lat="51.835002" lon="-1.808205"><ele>180.87</ele><time>2010-11-10T10:50:42Z</time></trkpt><trkpt lat="51.835050" lon="-1.808012"><ele>181.83</ele><time>2010-11-10T10:50:57Z</time></trkpt><trkpt lat="51.835083" lon="-1.807826"><ele>182.79</ele><time>2010-11-10T10:51:10Z</time></trkpt><trkpt lat="51.835118" lon="-1.807620"><ele>182.79</ele><time>2010-11-10T10:51:24Z</time></trkpt><trkpt lat="51.835141" lon="-1.807407"><ele>182.31</ele><time>2010-11-10T10:51:38Z</time></trkpt><trkpt lat="51.835167" lon="-1.807183"><ele>181.83</ele><time>2010-11-10T10:51:53Z</time></trkpt><trkpt lat="51.835188" lon="-1.806986"><ele>181.83</ele><time>2010-11-10T10:52:06Z</time></trkpt><trkpt lat="51.835205" lon="-1.806774"><ele>181.83</ele><time>2010-11-10T10:52:20Z</time></trkpt><trkpt lat="51.835238" lon="-1.806485"><ele>181.83</ele><time>2010-11-10T10:52:38Z</time></trkpt><trkpt lat="51.835267" lon="-1.806204"><ele>180.87</ele><time>2010-11-10T10:52:56Z</time></trkpt><trkpt lat="51.835293" lon="-1.805962"><ele>180.87</ele><time>2010-11-10T10:53:11Z</time></trkpt><trkpt lat="51.835313" lon="-1.805744"><ele>180.38</ele><time>2010-11-10T10:53:25Z</time></trkpt><trkpt lat="51.835342" lon="-1.805480"><ele>179.90</ele><time>2010-11-10T10:53:41Z</time></trkpt><trkpt lat="51.835368" lon="-1.805241"><ele>179.90</ele><time>2010-11-10T10:53:56Z</time></trkpt><trkpt lat="51.835398" lon="-1.804959"><ele>179.42</ele><time>2010-11-10T10:54:13Z</time></trkpt><trkpt lat="51.835424" lon="-1.804723"><ele>178.94</ele><time>2010-11-10T10:54:27Z</time></trkpt><trkpt lat="51.835458" lon="-1.804485"><ele>178.94</ele><time>2010-11-10T10:54:43Z</time></trkpt><trkpt lat="51.835560" lon="-1.804283"><ele>177.02</ele><time>2010-11-10T10:55:00Z</time></trkpt><trkpt lat="51.835568" lon="-1.804272"><ele>176.54</ele><time>2010-11-10T10:55:01Z</time></trkpt><trkpt lat="51.835599" lon="-1.804219"><ele>176.06</ele><time>2010-11-10T10:55:06Z</time></trkpt><trkpt lat="51.835615" lon="-1.804115"><ele>177.02</ele><time>2010-11-10T10:55:13Z</time></trkpt><trkpt lat="51.835628" lon="-1.804052"><ele>177.02</ele><time>2010-11-10T10:55:17Z</time></trkpt><trkpt lat="51.835664" lon="-1.803840"><ele>176.54</ele><time>2010-11-10T10:55:29Z</time></trkpt><trkpt lat="51.835664" lon="-1.803799"><ele>177.02</ele><time>2010-11-10T10:55:32Z</time></trkpt><trkpt lat="51.835674" lon="-1.803736"><ele>177.50</ele><time>2010-11-10T10:55:52Z</time></trkpt><trkpt lat="51.835688" lon="-1.803691"><ele>176.54</ele><time>2010-11-10T10:56:24Z</time></trkpt><trkpt lat="51.835702" lon="-1.803676"><ele>175.58</ele><time>2010-11-10T10:56:40Z</time></trkpt><trkpt lat="51.835710" lon="-1.803675"><ele>175.10</ele><time>2010-11-10T10:56:56Z</time></trkpt><trkpt lat="51.835730" lon="-1.803651"><ele>175.10</ele><time>2010-11-10T10:57:26Z</time></trkpt><trkpt lat="51.835727" lon="-1.803649"><ele>176.06</ele><time>2010-11-10T10:58:22Z</time></trkpt><trkpt lat="51.835725" lon="-1.803649"><ele>176.54</ele><time>2010-11-10T10:59:09Z</time></trkpt><trkpt lat="51.835728" lon="-1.803675"><ele>176.06</ele><time>2010-11-10T10:59:40Z</time></trkpt><trkpt lat="51.835720" lon="-1.803682"><ele>176.06</ele><time>2010-11-10T10:59:56Z</time></trkpt><trkpt lat="51.835707" lon="-1.803677"><ele>175.58</ele><time>2010-11-10T11:00:28Z</time></trkpt><trkpt lat="51.835702" lon="-1.803684"><ele>173.66</ele><time>2010-11-10T11:01:32Z</time></trkpt><trkpt lat="51.835703" lon="-1.803684"><ele>173.66</ele><time>2010-11-10T11:02:13Z</time></trkpt><trkpt lat="51.835701" lon="-1.803687"><ele>173.66</ele><time>2010-11-10T11:02:15Z</time></trkpt><trkpt lat="51.835659" lon="-1.803757"><ele>170.77</ele><time>2010-11-10T11:02:31Z</time></trkpt><trkpt lat="51.835690" lon="-1.803738"><ele>170.29</ele><time>2010-11-10T11:02:45Z</time></trkpt><trkpt lat="51.835715" lon="-1.803730"><ele>172.21</ele><time>2010-11-10T11:03:14Z</time></trkpt><trkpt lat="51.835715" lon="-1.803734"><ele>172.69</ele><time>2010-11-10T11:03:31Z</time></trkpt><trkpt lat="51.835714" lon="-1.803703"><ele>173.17</ele><time>2010-11-10T11:03:58Z</time></trkpt><trkpt lat="51.835716" lon="-1.803690"><ele>173.17</ele><time>2010-11-10T11:04:32Z</time></trkpt><trkpt lat="51.835720" lon="-1.803650"><ele>174.14</ele><time>2010-11-10T11:05:10Z</time></trkpt><trkpt lat="51.835726" lon="-1.803629"><ele>173.17</ele><time>2010-11-10T11:05:40Z</time></trkpt><trkpt lat="51.835689" lon="-1.803722"><ele>174.14</ele><time>2010-11-10T11:05:55Z</time></trkpt><trkpt lat="51.835779" lon="-1.803654"><ele>173.66</ele><time>2010-11-10T11:06:07Z</time></trkpt><trkpt lat="51.835781" lon="-1.803650"><ele>173.66</ele><time>2010-11-10T11:06:08Z</time></trkpt><trkpt lat="51.835802" lon="-1.803612"><ele>174.14</ele><time>2010-11-10T11:06:12Z</time></trkpt><trkpt lat="51.835855" lon="-1.803286"><ele>174.14</ele><time>2010-11-10T11:06:30Z</time></trkpt><trkpt lat="51.835834" lon="-1.803262"><ele>173.17</ele><time>2010-11-10T11:06:57Z</time></trkpt><trkpt lat="51.835813" lon="-1.803262"><ele>172.69</ele><time>2010-11-10T11:07:16Z</time></trkpt><trkpt lat="51.835910" lon="-1.803245"><ele>172.21</ele><time>2010-11-10T11:07:46Z</time></trkpt><trkpt lat="51.835878" lon="-1.803238"><ele>169.81</ele><time>2010-11-10T11:08:29Z</time></trkpt><trkpt lat="51.835844" lon="-1.803189"><ele>172.21</ele><time>2010-11-10T11:08:46Z</time></trkpt><trkpt lat="51.835879" lon="-1.803125"><ele>173.17</ele><time>2010-11-10T11:08:58Z</time></trkpt><trkpt lat="51.835926" lon="-1.803031"><ele>171.73</ele><time>2010-11-10T11:09:20Z</time></trkpt><trkpt lat="51.835930" lon="-1.803028"><ele>173.66</ele><time>2010-11-10T11:09:35Z</time></trkpt><trkpt lat="51.835907" lon="-1.803032"><ele>175.10</ele><time>2010-11-10T11:10:32Z</time></trkpt><trkpt lat="51.835832" lon="-1.802985"><ele>174.14</ele><time>2010-11-10T11:10:54Z</time></trkpt><trkpt lat="51.835807" lon="-1.803072"><ele>177.50</ele><time>2010-11-10T11:11:07Z</time></trkpt><trkpt lat="51.835803" lon="-1.803037"><ele>177.02</ele><time>2010-11-10T11:11:27Z</time></trkpt><trkpt lat="51.835781" lon="-1.803253"><ele>177.50</ele><time>2010-11-10T11:11:49Z</time></trkpt><trkpt lat="51.835761" lon="-1.803493"><ele>176.54</ele><time>2010-11-10T11:12:08Z</time></trkpt><trkpt lat="51.835724" lon="-1.803680"><ele>175.58</ele><time>2010-11-10T11:12:25Z</time></trkpt><trkpt lat="51.835663" lon="-1.803674"><ele>174.14</ele><time>2010-11-10T11:12:40Z</time></trkpt><trkpt lat="51.835665" lon="-1.803824"><ele>176.54</ele><time>2010-11-10T11:12:54Z</time></trkpt><trkpt lat="51.835656" lon="-1.803851"><ele>176.54</ele><time>2010-11-10T11:12:56Z</time></trkpt><trkpt lat="51.835631" lon="-1.803905"><ele>176.06</ele><time>2010-11-10T11:13:00Z</time></trkpt><trkpt lat="51.835584" lon="-1.804120"><ele>176.54</ele><time>2010-11-10T11:13:15Z</time></trkpt><trkpt lat="51.835519" lon="-1.804207"><ele>178.94</ele><time>2010-11-10T11:13:30Z</time></trkpt><trkpt lat="51.835419" lon="-1.804408"><ele>177.02</ele><time>2010-11-10T11:13:46Z</time></trkpt><trkpt lat="51.835393" lon="-1.804468"><ele>177.02</ele><time>2010-11-10T11:13:51Z</time></trkpt><trkpt lat="51.835355" lon="-1.804718"><ele>178.46</ele><time>2010-11-10T11:14:08Z</time></trkpt><trkpt lat="51.835329" lon="-1.805004"><ele>178.94</ele><time>2010-11-10T11:14:28Z</time></trkpt><trkpt lat="51.835328" lon="-1.805147"><ele>179.42</ele><time>2010-11-10T11:14:40Z</time></trkpt><trkpt lat="51.835299" lon="-1.805460"><ele>180.38</ele><time>2010-11-10T11:15:01Z</time></trkpt><trkpt lat="51.835275" lon="-1.805711"><ele>179.42</ele><time>2010-11-10T11:15:18Z</time></trkpt><trkpt lat="51.835273" lon="-1.805936"><ele>179.42</ele><time>2010-11-10T11:15:35Z</time></trkpt><trkpt lat="51.835246" lon="-1.806114"><ele>179.42</ele><time>2010-11-10T11:15:49Z</time></trkpt><trkpt lat="51.835212" lon="-1.806354"><ele>179.90</ele><time>2010-11-10T11:16:06Z</time></trkpt><trkpt lat="51.835184" lon="-1.806647"><ele>179.42</ele><time>2010-11-10T11:16:25Z</time></trkpt><trkpt lat="51.835149" lon="-1.806939"><ele>179.90</ele><time>2010-11-10T11:16:44Z</time></trkpt><trkpt lat="51.835121" lon="-1.807188"><ele>179.90</ele><time>2010-11-10T11:17:01Z</time></trkpt><trkpt lat="51.835094" lon="-1.807411"><ele>180.38</ele><time>2010-11-10T11:17:17Z</time></trkpt><trkpt lat="51.835090" lon="-1.807441"><ele>180.38</ele><time>2010-11-10T11:17:19Z</time></trkpt><trkpt lat="51.835060" lon="-1.807619"><ele>180.38</ele><time>2010-11-10T11:17:32Z</time></trkpt><trkpt lat="51.835026" lon="-1.807880"><ele>179.90</ele><time>2010-11-10T11:17:50Z</time></trkpt><trkpt lat="51.834978" lon="-1.808156"><ele>177.98</ele><time>2010-11-10T11:18:08Z</time></trkpt><trkpt lat="51.834951" lon="-1.808348"><ele>176.54</ele><time>2010-11-10T11:18:23Z</time></trkpt><trkpt lat="51.834933" lon="-1.808453"><ele>177.02</ele><time>2010-11-10T11:18:49Z</time></trkpt><trkpt lat="51.834920" lon="-1.808507"><ele>174.62</ele><time>2010-11-10T11:19:03Z</time></trkpt><trkpt lat="51.834955" lon="-1.808427"><ele>175.10</ele><time>2010-11-10T11:19:11Z</time></trkpt><trkpt lat="51.834951" lon="-1.808367"><ele>174.62</ele><time>2010-11-10T11:19:16Z</time></trkpt><trkpt lat="51.834762" lon="-1.808264"><ele>175.10</ele><time>2010-11-10T11:19:36Z</time></trkpt><trkpt lat="51.834641" lon="-1.808197"><ele>175.58</ele><time>2010-11-10T11:19:52Z</time></trkpt><trkpt lat="51.834496" lon="-1.808165"><ele>175.58</ele><time>2010-11-10T11:20:09Z</time></trkpt><trkpt lat="51.834372" lon="-1.808112"><ele>175.10</ele><time>2010-11-10T11:20:23Z</time></trkpt><trkpt lat="51.834268" lon="-1.808057"><ele>174.14</ele><time>2010-11-10T11:20:36Z</time></trkpt><trkpt lat="51.834246" lon="-1.808035"><ele>173.66</ele><time>2010-11-10T11:20:39Z</time></trkpt><trkpt lat="51.834038" lon="-1.807918"><ele>172.21</ele><time>2010-11-10T11:21:01Z</time></trkpt><trkpt lat="51.833853" lon="-1.807765"><ele>169.33</ele><time>2010-11-10T11:21:23Z</time></trkpt><trkpt lat="51.833698" lon="-1.807568"><ele>166.93</ele><time>2010-11-10T11:21:45Z</time></trkpt><trkpt lat="51.833627" lon="-1.807467"><ele>165.96</ele><time>2010-11-10T11:22:01Z</time></trkpt><trkpt lat="51.833509" lon="-1.807234"><ele>164.52</ele><time>2010-11-10T11:22:20Z</time></trkpt><trkpt lat="51.833488" lon="-1.807172"><ele>165.00</ele><time>2010-11-10T11:22:25Z</time></trkpt><trkpt lat="51.833429" lon="-1.806977"><ele>165.00</ele><time>2010-11-10T11:22:41Z</time></trkpt><trkpt lat="51.833372" lon="-1.806784"><ele>165.48</ele><time>2010-11-10T11:22:56Z</time></trkpt><trkpt lat="51.833304" lon="-1.806500"><ele>166.45</ele><time>2010-11-10T11:23:16Z</time></trkpt><trkpt lat="51.833273" lon="-1.806389"><ele>165.96</ele><time>2010-11-10T11:23:32Z</time></trkpt><trkpt lat="51.833270" lon="-1.806452"><ele>166.93</ele><time>2010-11-10T11:24:06Z</time></trkpt><trkpt lat="51.833280" lon="-1.806583"><ele>165.96</ele><time>2010-11-10T11:24:19Z</time></trkpt><trkpt lat="51.833298" lon="-1.806660"><ele>166.45</ele><time>2010-11-10T11:24:25Z</time></trkpt><trkpt lat="51.833369" lon="-1.806901"><ele>167.41</ele><time>2010-11-10T11:24:43Z</time></trkpt><trkpt lat="51.833439" lon="-1.807143"><ele>165.00</ele><time>2010-11-10T11:25:02Z</time></trkpt><trkpt lat="51.833476" lon="-1.807299"><ele>164.04</ele><time>2010-11-10T11:25:17Z</time></trkpt><trkpt lat="51.833480" lon="-1.807419"><ele>164.04</ele><time>2010-11-10T11:25:33Z</time></trkpt><trkpt lat="51.833456" lon="-1.807516"><ele>162.60</ele><time>2010-11-10T11:25:52Z</time></trkpt><trkpt lat="51.833440" lon="-1.807523"><ele>162.12</ele><time>2010-11-10T11:26:12Z</time></trkpt><trkpt lat="51.833399" lon="-1.807538"><ele>161.16</ele><time>2010-11-10T11:26:30Z</time></trkpt><trkpt lat="51.833391" lon="-1.807547"><ele>158.75</ele><time>2010-11-10T11:26:57Z</time></trkpt><trkpt lat="51.833370" lon="-1.807557"><ele>158.27</ele><time>2010-11-10T11:27:04Z</time></trkpt><trkpt lat="51.833358" lon="-1.807560"><ele>158.27</ele><time>2010-11-10T11:27:06Z</time></trkpt><trkpt lat="51.833216" lon="-1.807556"><ele>158.75</ele><time>2010-11-10T11:27:24Z</time></trkpt><trkpt lat="51.833198" lon="-1.807550"><ele>159.24</ele><time>2010-11-10T11:27:26Z</time></trkpt><trkpt lat="51.833142" lon="-1.807549"><ele>158.75</ele><time>2010-11-10T11:27:32Z</time></trkpt><trkpt lat="51.833022" lon="-1.807517"><ele>157.31</ele><time>2010-11-10T11:27:47Z</time></trkpt><trkpt lat="51.832911" lon="-1.807478"><ele>153.47</ele><time>2010-11-10T11:28:04Z</time></trkpt><trkpt lat="51.832757" lon="-1.807445"><ele>149.62</ele><time>2010-11-10T11:28:25Z</time></trkpt><trkpt lat="51.832630" lon="-1.807400"><ele>149.14</ele><time>2010-11-10T11:28:42Z</time></trkpt><trkpt lat="51.832575" lon="-1.807394"><ele>149.62</ele><time>2010-11-10T11:28:58Z</time></trkpt><trkpt lat="51.832572" lon="-1.807391"><ele>148.66</ele><time>2010-11-10T11:29:22Z</time></trkpt><trkpt lat="51.832443" lon="-1.807419"><ele>147.22</ele><time>2010-11-10T11:29:37Z</time></trkpt><trkpt lat="51.832300" lon="-1.807380"><ele>146.74</ele><time>2010-11-10T11:29:55Z</time></trkpt><trkpt lat="51.832150" lon="-1.807349"><ele>149.62</ele><time>2010-11-10T11:30:14Z</time></trkpt><trkpt lat="51.832049" lon="-1.807316"><ele>152.51</ele><time>2010-11-10T11:30:39Z</time></trkpt><trkpt lat="51.832047" lon="-1.807271"><ele>152.51</ele><time>2010-11-10T11:31:18Z</time></trkpt><trkpt lat="51.831964" lon="-1.807262"><ele>152.03</ele><time>2010-11-10T11:31:31Z</time></trkpt><trkpt lat="51.831807" lon="-1.807217"><ele>155.39</ele><time>2010-11-10T11:31:53Z</time></trkpt><trkpt lat="51.831706" lon="-1.807204"><ele>155.39</ele><time>2010-11-10T11:32:06Z</time></trkpt><trkpt lat="51.831541" lon="-1.807180"><ele>157.79</ele><time>2010-11-10T11:32:25Z</time></trkpt><trkpt lat="51.831369" lon="-1.807198"><ele>159.72</ele><time>2010-11-10T11:32:48Z</time></trkpt><trkpt lat="51.831193" lon="-1.807180"><ele>162.60</ele><time>2010-11-10T11:33:13Z</time></trkpt><trkpt lat="51.831018" lon="-1.807153"><ele>165.00</ele><time>2010-11-10T11:33:36Z</time></trkpt><trkpt lat="51.830836" lon="-1.807143"><ele>166.45</ele><time>2010-11-10T11:33:59Z</time></trkpt><trkpt lat="51.830677" lon="-1.807112"><ele>168.85</ele><time>2010-11-10T11:34:21Z</time></trkpt><trkpt lat="51.830492" lon="-1.807090"><ele>168.85</ele><time>2010-11-10T11:34:42Z</time></trkpt><trkpt lat="51.830302" lon="-1.807069"><ele>170.29</ele><time>2010-11-10T11:35:02Z</time></trkpt><trkpt lat="51.830132" lon="-1.807043"><ele>171.73</ele><time>2010-11-10T11:35:21Z</time></trkpt><trkpt lat="51.829943" lon="-1.807003"><ele>172.69</ele><time>2010-11-10T11:35:41Z</time></trkpt><trkpt lat="51.829746" lon="-1.806974"><ele>171.25</ele><time>2010-11-10T11:36:01Z</time></trkpt><trkpt lat="51.829543" lon="-1.806943"><ele>171.25</ele><time>2010-11-10T11:36:19Z</time></trkpt><trkpt lat="51.829364" lon="-1.806920"><ele>168.85</ele><time>2010-11-10T11:36:37Z</time></trkpt><trkpt lat="51.829181" lon="-1.806892"><ele>169.81</ele><time>2010-11-10T11:36:56Z</time></trkpt><trkpt lat="51.829018" lon="-1.806876"><ele>171.73</ele><time>2010-11-10T11:37:14Z</time></trkpt><trkpt lat="51.828836" lon="-1.806857"><ele>172.69</ele><time>2010-11-10T11:37:32Z</time></trkpt><trkpt lat="51.828658" lon="-1.806829"><ele>172.21</ele><time>2010-11-10T11:37:51Z</time></trkpt><trkpt lat="51.828421" lon="-1.806793"><ele>173.17</ele><time>2010-11-10T11:38:14Z</time></trkpt><trkpt lat="51.828218" lon="-1.806750"><ele>173.66</ele><time>2010-11-10T11:38:35Z</time></trkpt><trkpt lat="51.828014" lon="-1.806725"><ele>173.66</ele><time>2010-11-10T11:38:56Z</time></trkpt><trkpt lat="51.827838" lon="-1.806682"><ele>174.14</ele><time>2010-11-10T11:39:14Z</time></trkpt><trkpt lat="51.827668" lon="-1.806655"><ele>175.10</ele><time>2010-11-10T11:39:31Z</time></trkpt><trkpt lat="51.827451" lon="-1.806614"><ele>176.54</ele><time>2010-11-10T11:39:54Z</time></trkpt><trkpt lat="51.827379" lon="-1.806613"><ele>176.06</ele><time>2010-11-10T11:40:01Z</time></trkpt><trkpt lat="51.827331" lon="-1.806616"><ele>176.54</ele><time>2010-11-10T11:40:06Z</time></trkpt><trkpt lat="51.827207" lon="-1.806595"><ele>179.90</ele><time>2010-11-10T11:40:23Z</time></trkpt><trkpt lat="51.827071" lon="-1.806517"><ele>181.35</ele><time>2010-11-10T11:40:42Z</time></trkpt><trkpt lat="51.826973" lon="-1.806474"><ele>180.38</ele><time>2010-11-10T11:40:58Z</time></trkpt><trkpt lat="51.826875" lon="-1.806486"><ele>180.38</ele><time>2010-11-10T11:41:13Z</time></trkpt><trkpt lat="51.826811" lon="-1.806494"><ele>180.87</ele><time>2010-11-10T11:41:27Z</time></trkpt><trkpt lat="51.826757" lon="-1.806424"><ele>180.38</ele><time>2010-11-10T11:41:42Z</time></trkpt><trkpt lat="51.826669" lon="-1.806400"><ele>180.38</ele><time>2010-11-10T11:41:56Z</time></trkpt><trkpt lat="51.826621" lon="-1.806405"><ele>179.42</ele><time>2010-11-10T11:42:22Z</time></trkpt><trkpt lat="51.826613" lon="-1.806425"><ele>177.50</ele><time>2010-11-10T11:43:04Z</time></trkpt><trkpt lat="51.826620" lon="-1.806497"><ele>177.50</ele><time>2010-11-10T11:43:30Z</time></trkpt><trkpt lat="51.826462" lon="-1.806412"><ele>180.38</ele><time>2010-11-10T11:43:52Z</time></trkpt><trkpt lat="51.826292" lon="-1.806408"><ele>178.46</ele><time>2010-11-10T11:44:08Z</time></trkpt><trkpt lat="51.826254" lon="-1.806393"><ele>177.98</ele><time>2010-11-10T11:44:12Z</time></trkpt><trkpt lat="51.826124" lon="-1.806395"><ele>179.42</ele><time>2010-11-10T11:44:26Z</time></trkpt><trkpt lat="51.826119" lon="-1.806455"><ele>179.42</ele><time>2010-11-10T11:44:47Z</time></trkpt><trkpt lat="51.826010" lon="-1.806459"><ele>179.42</ele><time>2010-11-10T11:45:01Z</time></trkpt><trkpt lat="51.825836" lon="-1.806469"><ele>177.98</ele><time>2010-11-10T11:45:19Z</time></trkpt><trkpt lat="51.825679" lon="-1.806473"><ele>177.02</ele><time>2010-11-10T11:45:35Z</time></trkpt><trkpt lat="51.825516" lon="-1.806482"><ele>174.62</ele><time>2010-11-10T11:45:51Z</time></trkpt><trkpt lat="51.825322" lon="-1.806489"><ele>173.66</ele><time>2010-11-10T11:46:09Z</time></trkpt><trkpt lat="51.825128" lon="-1.806493"><ele>172.21</ele><time>2010-11-10T11:46:29Z</time></trkpt><trkpt lat="51.824972" lon="-1.806508"><ele>172.21</ele><time>2010-11-10T11:46:46Z</time></trkpt><trkpt lat="51.824793" lon="-1.806497"><ele>171.25</ele><time>2010-11-10T11:47:03Z</time></trkpt><trkpt lat="51.824606" lon="-1.806495"><ele>171.25</ele><time>2010-11-10T11:47:22Z</time></trkpt><trkpt lat="51.824438" lon="-1.806501"><ele>170.77</ele><time>2010-11-10T11:47:38Z</time></trkpt><trkpt lat="51.824280" lon="-1.806508"><ele>170.29</ele><time>2010-11-10T11:47:54Z</time></trkpt><trkpt lat="51.824127" lon="-1.806508"><ele>170.29</ele><time>2010-11-10T11:48:10Z</time></trkpt><trkpt lat="51.824026" lon="-1.806488"><ele>169.81</ele><time>2010-11-10T11:48:24Z</time></trkpt><trkpt lat="51.824014" lon="-1.806566"><ele>170.29</ele><time>2010-11-10T11:48:35Z</time></trkpt><trkpt lat="51.823970" lon="-1.806755"><ele>171.25</ele><time>2010-11-10T11:48:52Z</time></trkpt><trkpt lat="51.823952" lon="-1.806876"><ele>172.21</ele><time>2010-11-10T11:49:00Z</time></trkpt><trkpt lat="51.823889" lon="-1.807228"><ele>173.17</ele><time>2010-11-10T11:49:25Z</time></trkpt><trkpt lat="51.823865" lon="-1.807370"><ele>171.25</ele><time>2010-11-10T11:49:38Z</time></trkpt><trkpt lat="51.823802" lon="-1.807724"><ele>168.37</ele><time>2010-11-10T11:49:58Z</time></trkpt><trkpt lat="51.823745" lon="-1.808129"><ele>167.89</ele><time>2010-11-10T11:50:21Z</time></trkpt><trkpt lat="51.823697" lon="-1.808447"><ele>169.33</ele><time>2010-11-10T11:50:40Z</time></trkpt><trkpt lat="51.823635" lon="-1.808809"><ele>171.73</ele><time>2010-11-10T11:51:02Z</time></trkpt><trkpt lat="51.823581" lon="-1.809180"><ele>173.17</ele><time>2010-11-10T11:51:25Z</time></trkpt><trkpt lat="51.823542" lon="-1.809503"><ele>174.62</ele><time>2010-11-10T11:51:45Z</time></trkpt><trkpt lat="51.823512" lon="-1.809800"><ele>175.10</ele><time>2010-11-10T11:52:06Z</time></trkpt><trkpt lat="51.823475" lon="-1.810098"><ele>175.58</ele><time>2010-11-10T11:52:27Z</time></trkpt><trkpt lat="51.823432" lon="-1.810399"><ele>175.58</ele><time>2010-11-10T11:52:47Z</time></trkpt><trkpt lat="51.823382" lon="-1.810757"><ele>176.54</ele><time>2010-11-10T11:53:11Z</time></trkpt><trkpt lat="51.823336" lon="-1.811051"><ele>177.50</ele><time>2010-11-10T11:53:31Z</time></trkpt><trkpt lat="51.823282" lon="-1.811405"><ele>178.94</ele><time>2010-11-10T11:53:54Z</time></trkpt><trkpt lat="51.823259" lon="-1.811539"><ele>177.98</ele><time>2010-11-10T11:54:12Z</time></trkpt><trkpt lat="51.823214" lon="-1.811836"><ele>177.98</ele><time>2010-11-10T11:54:29Z</time></trkpt><trkpt lat="51.823155" lon="-1.812245"><ele>178.94</ele><time>2010-11-10T11:54:54Z</time></trkpt><trkpt lat="51.823085" lon="-1.812646"><ele>179.42</ele><time>2010-11-10T11:55:18Z</time></trkpt><trkpt lat="51.823046" lon="-1.812963"><ele>178.94</ele><time>2010-11-10T11:55:38Z</time></trkpt><trkpt lat="51.823047" lon="-1.813012"><ele>177.98</ele><time>2010-11-10T11:55:48Z</time></trkpt><trkpt lat="51.823012" lon="-1.813247"><ele>175.58</ele><time>2010-11-10T11:56:03Z</time></trkpt><trkpt lat="51.822947" lon="-1.813505"><ele>176.54</ele><time>2010-11-10T11:56:20Z</time></trkpt><trkpt lat="51.822910" lon="-1.813721"><ele>175.10</ele><time>2010-11-10T11:56:33Z</time></trkpt><trkpt lat="51.822880" lon="-1.813929"><ele>171.73</ele><time>2010-11-10T11:56:50Z</time></trkpt><trkpt lat="51.822865" lon="-1.814024"><ele>171.25</ele><time>2010-11-10T11:57:00Z</time></trkpt><trkpt lat="51.822889" lon="-1.814040"><ele>171.25</ele><time>2010-11-10T11:57:18Z</time></trkpt><trkpt lat="51.822878" lon="-1.814157"><ele>170.77</ele><time>2010-11-10T11:57:39Z</time></trkpt><trkpt lat="51.822851" lon="-1.814373"><ele>170.77</ele><time>2010-11-10T11:57:57Z</time></trkpt><trkpt lat="51.822866" lon="-1.814565"><ele>168.37</ele><time>2010-11-10T11:58:12Z</time></trkpt><trkpt lat="51.822830" lon="-1.814813"><ele>164.52</ele><time>2010-11-10T11:58:32Z</time></trkpt><trkpt lat="51.822802" lon="-1.815078"><ele>159.72</ele><time>2010-11-10T11:58:52Z</time></trkpt><trkpt lat="51.822785" lon="-1.815237"><ele>157.79</ele><time>2010-11-10T11:59:08Z</time></trkpt><trkpt lat="51.822780" lon="-1.815380"><ele>158.27</ele><time>2010-11-10T11:59:24Z</time></trkpt><trkpt lat="51.822782" lon="-1.815571"><ele>157.31</ele><time>2010-11-10T11:59:41Z</time></trkpt><trkpt lat="51.822778" lon="-1.815602"><ele>157.31</ele><time>2010-11-10T11:59:44Z</time></trkpt><trkpt lat="51.822803" lon="-1.815799"><ele>158.27</ele><time>2010-11-10T11:59:59Z</time></trkpt><trkpt lat="51.822810" lon="-1.815936"><ele>158.75</ele><time>2010-11-10T12:00:10Z</time></trkpt><trkpt lat="51.822771" lon="-1.816145"><ele>158.27</ele><time>2010-11-10T12:00:25Z</time></trkpt><trkpt lat="51.822758" lon="-1.816322"><ele>156.35</ele><time>2010-11-10T12:00:40Z</time></trkpt><trkpt lat="51.822744" lon="-1.816577"><ele>155.39</ele><time>2010-11-10T12:00:56Z</time></trkpt><trkpt lat="51.822767" lon="-1.816815"><ele>155.87</ele><time>2010-11-10T12:01:13Z</time></trkpt><trkpt lat="51.822823" lon="-1.816951"><ele>152.51</ele><time>2010-11-10T12:01:27Z</time></trkpt><trkpt lat="51.822815" lon="-1.817006"><ele>151.54</ele><time>2010-11-10T12:01:39Z</time></trkpt><trkpt lat="51.822956" lon="-1.817155"><ele>154.91</ele><time>2010-11-10T12:01:59Z</time></trkpt><trkpt lat="51.823055" lon="-1.817279"><ele>155.87</ele><time>2010-11-10T12:02:16Z</time></trkpt><trkpt lat="51.823105" lon="-1.817330"><ele>157.79</ele><time>2010-11-10T12:02:35Z</time></trkpt><trkpt lat="51.823142" lon="-1.817406"><ele>158.75</ele><time>2010-11-10T12:02:48Z</time></trkpt><trkpt lat="51.823271" lon="-1.817604"><ele>159.24</ele><time>2010-11-10T12:03:05Z</time></trkpt><trkpt lat="51.823369" lon="-1.817741"><ele>158.27</ele><time>2010-11-10T12:03:21Z</time></trkpt><trkpt lat="51.823376" lon="-1.817917"><ele>159.72</ele><time>2010-11-10T12:03:36Z</time></trkpt><trkpt lat="51.823396" lon="-1.818079"><ele>164.04</ele><time>2010-11-10T12:03:52Z</time></trkpt><trkpt lat="51.823394" lon="-1.818285"><ele>165.48</ele><time>2010-11-10T12:04:09Z</time></trkpt><trkpt lat="51.823357" lon="-1.818476"><ele>167.89</ele><time>2010-11-10T12:04:25Z</time></trkpt><trkpt lat="51.823341" lon="-1.818536"><ele>166.93</ele><time>2010-11-10T12:04:39Z</time></trkpt><trkpt lat="51.823325" lon="-1.818627"><ele>165.00</ele><time>2010-11-10T12:04:54Z</time></trkpt><trkpt lat="51.823325" lon="-1.818638"><ele>165.00</ele><time>2010-11-10T12:04:55Z</time></trkpt><trkpt lat="51.823330" lon="-1.818758"><ele>166.93</ele><time>2010-11-10T12:05:07Z</time></trkpt><trkpt lat="51.823330" lon="-1.818918"><ele>169.33</ele><time>2010-11-10T12:05:20Z</time></trkpt><trkpt lat="51.823340" lon="-1.818973"><ele>170.29</ele><time>2010-11-10T12:05:35Z</time></trkpt><trkpt lat="51.823315" lon="-1.819124"><ele>171.73</ele><time>2010-11-10T12:05:52Z</time></trkpt><trkpt lat="51.823353" lon="-1.819327"><ele>172.69</ele><time>2010-11-10T12:06:07Z</time></trkpt><trkpt lat="51.823358" lon="-1.819342"><ele>172.69</ele><time>2010-11-10T12:06:08Z</time></trkpt><trkpt lat="51.823404" lon="-1.819550"><ele>173.17</ele><time>2010-11-10T12:06:22Z</time></trkpt><trkpt lat="51.823409" lon="-1.819718"><ele>173.66</ele><time>2010-11-10T12:06:36Z</time></trkpt><trkpt lat="51.823423" lon="-1.819908"><ele>173.66</ele><time>2010-11-10T12:06:49Z</time></trkpt><trkpt lat="51.823420" lon="-1.820205"><ele>176.06</ele><time>2010-11-10T12:07:07Z</time></trkpt><trkpt lat="51.823423" lon="-1.820297"><ele>176.06</ele><time>2010-11-10T12:07:13Z</time></trkpt><trkpt lat="51.823415" lon="-1.820383"><ele>176.06</ele><time>2010-11-10T12:07:18Z</time></trkpt><trkpt lat="51.823379" lon="-1.820676"><ele>178.46</ele><time>2010-11-10T12:07:36Z</time></trkpt><trkpt lat="51.823355" lon="-1.820765"><ele>179.42</ele><time>2010-11-10T12:07:41Z</time></trkpt><trkpt lat="51.823350" lon="-1.820797"><ele>179.90</ele><time>2010-11-10T12:07:43Z</time></trkpt><trkpt lat="51.823302" lon="-1.821019"><ele>180.87</ele><time>2010-11-10T12:07:55Z</time></trkpt><trkpt lat="51.823298" lon="-1.821053"><ele>180.38</ele><time>2010-11-10T12:07:57Z</time></trkpt><trkpt lat="51.823264" lon="-1.821362"><ele>177.02</ele><time>2010-11-10T12:08:13Z</time></trkpt><trkpt lat="51.823199" lon="-1.821733"><ele>177.50</ele><time>2010-11-10T12:08:34Z</time></trkpt><trkpt lat="51.823169" lon="-1.822043"><ele>176.54</ele><time>2010-11-10T12:08:52Z</time></trkpt><trkpt lat="51.823168" lon="-1.822123"><ele>175.58</ele><time>2010-11-10T12:08:57Z</time></trkpt><trkpt lat="51.823162" lon="-1.822357"><ele>174.14</ele><time>2010-11-10T12:09:12Z</time></trkpt><trkpt lat="51.823203" lon="-1.822620"><ele>175.58</ele><time>2010-11-10T12:09:31Z</time></trkpt><trkpt lat="51.823223" lon="-1.822681"><ele>177.98</ele><time>2010-11-10T12:09:36Z</time></trkpt><trkpt lat="51.823286" lon="-1.822911"><ele>177.98</ele><time>2010-11-10T12:09:54Z</time></trkpt><trkpt lat="51.823285" lon="-1.823064"><ele>176.06</ele><time>2010-11-10T12:10:06Z</time></trkpt><trkpt lat="51.823278" lon="-1.823343"><ele>177.98</ele><time>2010-11-10T12:10:25Z</time></trkpt><trkpt lat="51.823294" lon="-1.823587"><ele>181.35</ele><time>2010-11-10T12:10:40Z</time></trkpt><trkpt lat="51.823288" lon="-1.823663"><ele>181.35</ele><time>2010-11-10T12:10:45Z</time></trkpt><trkpt lat="51.823285" lon="-1.823764"><ele>180.87</ele><time>2010-11-10T12:10:53Z</time></trkpt><trkpt lat="51.823310" lon="-1.824046"><ele>181.35</ele><time>2010-11-10T12:11:13Z</time></trkpt><trkpt lat="51.823291" lon="-1.824385"><ele>180.87</ele><time>2010-11-10T12:11:37Z</time></trkpt><trkpt lat="51.823291" lon="-1.824600"><ele>181.83</ele><time>2010-11-10T12:11:53Z</time></trkpt><trkpt lat="51.823283" lon="-1.824804"><ele>181.35</ele><time>2010-11-10T12:12:07Z</time></trkpt><trkpt lat="51.823285" lon="-1.825007"><ele>181.35</ele><time>2010-11-10T12:12:22Z</time></trkpt><trkpt lat="51.823370" lon="-1.825144"><ele>182.79</ele><time>2010-11-10T12:12:36Z</time></trkpt><trkpt lat="51.823521" lon="-1.825360"><ele>183.75</ele><time>2010-11-10T12:12:59Z</time></trkpt><trkpt lat="51.823621" lon="-1.825459"><ele>185.19</ele><time>2010-11-10T12:13:16Z</time></trkpt><trkpt lat="51.823707" lon="-1.825575"><ele>186.15</ele><time>2010-11-10T12:13:28Z</time></trkpt><trkpt lat="51.823860" lon="-1.825762"><ele>186.63</ele><time>2010-11-10T12:13:48Z</time></trkpt><trkpt lat="51.824007" lon="-1.825941"><ele>187.59</ele><time>2010-11-10T12:14:07Z</time></trkpt><trkpt lat="51.824107" lon="-1.826069"><ele>186.15</ele><time>2010-11-10T12:14:23Z</time></trkpt><trkpt lat="51.824219" lon="-1.826203"><ele>184.71</ele><time>2010-11-10T12:14:39Z</time></trkpt><trkpt lat="51.824319" lon="-1.826314"><ele>183.27</ele><time>2010-11-10T12:14:53Z</time></trkpt><trkpt lat="51.824464" lon="-1.826550"><ele>181.35</ele><time>2010-11-10T12:15:13Z</time></trkpt><trkpt lat="51.824601" lon="-1.826794"><ele>180.87</ele><time>2010-11-10T12:15:33Z</time></trkpt><trkpt lat="51.824706" lon="-1.827008"><ele>178.94</ele><time>2010-11-10T12:15:51Z</time></trkpt><trkpt lat="51.824746" lon="-1.827095"><ele>178.46</ele><time>2010-11-10T12:15:59Z</time></trkpt><trkpt lat="51.824808" lon="-1.827220"><ele>177.98</ele><time>2010-11-10T12:16:12Z</time></trkpt><trkpt lat="51.824830" lon="-1.827282"><ele>177.02</ele><time>2010-11-10T12:16:17Z</time></trkpt><trkpt lat="51.824898" lon="-1.827445"><ele>175.58</ele><time>2010-11-10T12:16:31Z</time></trkpt><trkpt lat="51.824916" lon="-1.827481"><ele>174.62</ele><time>2010-11-10T12:16:34Z</time></trkpt><trkpt lat="51.825007" lon="-1.827671"><ele>171.73</ele><time>2010-11-10T12:16:51Z</time></trkpt><trkpt lat="51.825099" lon="-1.827833"><ele>170.29</ele><time>2010-11-10T12:17:07Z</time></trkpt><trkpt lat="51.825237" lon="-1.828021"><ele>169.33</ele><time>2010-11-10T12:17:25Z</time></trkpt><trkpt lat="51.825351" lon="-1.828227"><ele>168.37</ele><time>2010-11-10T12:17:44Z</time></trkpt><trkpt lat="51.825440" lon="-1.828407"><ele>167.41</ele><time>2010-11-10T12:17:58Z</time></trkpt><trkpt lat="51.825468" lon="-1.828456"><ele>166.45</ele><time>2010-11-10T12:18:02Z</time></trkpt><trkpt lat="51.825484" lon="-1.828516"><ele>165.48</ele><time>2010-11-10T12:18:06Z</time></trkpt><trkpt lat="51.825529" lon="-1.828613"><ele>164.52</ele><time>2010-11-10T12:18:12Z</time></trkpt><trkpt lat="51.825556" lon="-1.828680"><ele>164.04</ele><time>2010-11-10T12:18:16Z</time></trkpt><trkpt lat="51.825693" lon="-1.829135"><ele>159.24</ele><time>2010-11-10T12:18:37Z</time></trkpt><trkpt lat="51.825831" lon="-1.829494"><ele>156.35</ele><time>2010-11-10T12:18:57Z</time></trkpt><trkpt lat="51.825988" lon="-1.829763"><ele>156.35</ele><time>2010-11-10T12:19:14Z</time></trkpt><trkpt lat="51.826284" lon="-1.829961"><ele>157.79</ele><time>2010-11-10T12:19:37Z</time></trkpt><trkpt lat="51.826323" lon="-1.829967"><ele>157.79</ele><time>2010-11-10T12:19:40Z</time></trkpt><trkpt lat="51.826551" lon="-1.830093"><ele>157.79</ele><time>2010-11-10T12:19:59Z</time></trkpt><trkpt lat="51.826689" lon="-1.830130"><ele>160.20</ele><time>2010-11-10T12:20:15Z</time></trkpt><trkpt lat="51.826860" lon="-1.830163"><ele>161.64</ele><time>2010-11-10T12:20:36Z</time></trkpt><trkpt lat="51.826960" lon="-1.830188"><ele>165.48</ele><time>2010-11-10T12:20:54Z</time></trkpt><trkpt lat="51.827162" lon="-1.830161"><ele>165.00</ele><time>2010-11-10T12:21:14Z</time></trkpt><trkpt lat="51.827303" lon="-1.830151"><ele>165.48</ele><time>2010-11-10T12:21:30Z</time></trkpt><trkpt lat="51.827401" lon="-1.830157"><ele>166.45</ele><time>2010-11-10T12:21:42Z</time></trkpt><trkpt lat="51.827565" lon="-1.830137"><ele>170.77</ele><time>2010-11-10T12:21:59Z</time></trkpt><trkpt lat="51.827760" lon="-1.830134"><ele>169.81</ele><time>2010-11-10T12:22:20Z</time></trkpt><trkpt lat="51.827870" lon="-1.830160"><ele>169.33</ele><time>2010-11-10T12:22:33Z</time></trkpt><trkpt lat="51.827932" lon="-1.830207"><ele>168.37</ele><time>2010-11-10T12:22:41Z</time></trkpt><trkpt lat="51.827945" lon="-1.830302"><ele>167.89</ele><time>2010-11-10T12:22:47Z</time></trkpt><trkpt lat="51.828001" lon="-1.830564"><ele>168.85</ele><time>2010-11-10T12:23:05Z</time></trkpt><trkpt lat="51.828041" lon="-1.830831"><ele>169.33</ele><time>2010-11-10T12:23:23Z</time></trkpt><trkpt lat="51.828039" lon="-1.830971"><ele>166.93</ele><time>2010-11-10T12:23:32Z</time></trkpt><trkpt lat="51.828083" lon="-1.831246"><ele>165.48</ele><time>2010-11-10T12:23:50Z</time></trkpt><trkpt lat="51.828152" lon="-1.831558"><ele>164.04</ele><time>2010-11-10T12:24:10Z</time></trkpt><trkpt lat="51.828210" lon="-1.831842"><ele>163.56</ele><time>2010-11-10T12:24:28Z</time></trkpt><trkpt lat="51.828212" lon="-1.831857"><ele>163.56</ele><time>2010-11-10T12:24:29Z</time></trkpt><trkpt lat="51.828240" lon="-1.832057"><ele>162.60</ele><time>2010-11-10T12:24:42Z</time></trkpt><trkpt lat="51.828242" lon="-1.832091"><ele>162.12</ele><time>2010-11-10T12:24:44Z</time></trkpt><trkpt lat="51.828249" lon="-1.832122"><ele>161.64</ele><time>2010-11-10T12:24:46Z</time></trkpt><trkpt lat="51.828278" lon="-1.832216"><ele>162.12</ele><time>2010-11-10T12:24:53Z</time></trkpt><trkpt lat="51.828296" lon="-1.832425"><ele>163.56</ele><time>2010-11-10T12:25:08Z</time></trkpt><trkpt lat="51.828362" lon="-1.832706"><ele>164.04</ele><time>2010-11-10T12:25:26Z</time></trkpt><trkpt lat="51.828413" lon="-1.832873"><ele>163.56</ele><time>2010-11-10T12:25:37Z</time></trkpt><trkpt lat="51.828438" lon="-1.832965"><ele>164.52</ele><time>2010-11-10T12:25:43Z</time></trkpt><trkpt lat="51.828463" lon="-1.833133"><ele>165.00</ele><time>2010-11-10T12:25:54Z</time></trkpt><trkpt lat="51.828462" lon="-1.833170"><ele>165.00</ele><time>2010-11-10T12:25:56Z</time></trkpt><trkpt lat="51.828478" lon="-1.833258"><ele>165.48</ele><time>2010-11-10T12:26:01Z</time></trkpt><trkpt lat="51.828510" lon="-1.833396"><ele>165.96</ele><time>2010-11-10T12:26:10Z</time></trkpt><trkpt lat="51.828517" lon="-1.833436"><ele>165.96</ele><time>2010-11-10T12:26:13Z</time></trkpt><trkpt lat="51.828529" lon="-1.833480"><ele>165.96</ele><time>2010-11-10T12:26:16Z</time></trkpt><trkpt lat="51.828557" lon="-1.833554"><ele>165.96</ele><time>2010-11-10T12:26:21Z</time></trkpt><trkpt lat="51.828569" lon="-1.833620"><ele>165.96</ele><time>2010-11-10T12:26:25Z</time></trkpt><trkpt lat="51.828612" lon="-1.833912"><ele>165.00</ele><time>2010-11-10T12:26:42Z</time></trkpt><trkpt lat="51.828652" lon="-1.834163"><ele>165.00</ele><time>2010-11-10T12:26:58Z</time></trkpt><trkpt lat="51.828691" lon="-1.834384"><ele>165.96</ele><time>2010-11-10T12:27:11Z</time></trkpt><trkpt lat="51.828736" lon="-1.834595"><ele>165.96</ele><time>2010-11-10T12:27:24Z</time></trkpt><trkpt lat="51.828837" lon="-1.834833"><ele>165.00</ele><time>2010-11-10T12:27:41Z</time></trkpt><trkpt lat="51.828863" lon="-1.834877"><ele>165.48</ele><time>2010-11-10T12:27:44Z</time></trkpt><trkpt lat="51.828889" lon="-1.834916"><ele>165.96</ele><time>2010-11-10T12:27:47Z</time></trkpt><trkpt lat="51.828901" lon="-1.835047"><ele>166.45</ele><time>2010-11-10T12:27:55Z</time></trkpt><trkpt lat="51.828928" lon="-1.835241"><ele>165.96</ele><time>2010-11-10T12:28:09Z</time></trkpt><trkpt lat="51.828963" lon="-1.835321"><ele>165.00</ele><time>2010-11-10T12:28:15Z</time></trkpt><trkpt lat="51.829035" lon="-1.835483"><ele>163.08</ele><time>2010-11-10T12:28:26Z</time></trkpt><trkpt lat="51.829048" lon="-1.835505"><ele>162.60</ele><time>2010-11-10T12:28:28Z</time></trkpt><trkpt lat="51.829100" lon="-1.835617"><ele>160.68</ele><time>2010-11-10T12:28:38Z</time></trkpt><trkpt lat="51.829173" lon="-1.835686"><ele>160.68</ele><time>2010-11-10T12:28:51Z</time></trkpt><trkpt lat="51.829327" lon="-1.835819"><ele>160.20</ele><time>2010-11-10T12:29:08Z</time></trkpt><trkpt lat="51.829425" lon="-1.835969"><ele>157.31</ele><time>2010-11-10T12:29:24Z</time></trkpt><trkpt lat="51.829552" lon="-1.836096"><ele>159.24</ele><time>2010-11-10T12:29:44Z</time></trkpt><trkpt lat="51.829700" lon="-1.836344"><ele>158.27</ele><time>2010-11-10T12:30:03Z</time></trkpt><trkpt lat="51.829877" lon="-1.836545"><ele>159.72</ele><time>2010-11-10T12:30:22Z</time></trkpt><trkpt lat="51.829983" lon="-1.836747"><ele>159.72</ele><time>2010-11-10T12:30:40Z</time></trkpt><trkpt lat="51.830110" lon="-1.836919"><ele>157.79</ele><time>2010-11-10T12:30:55Z</time></trkpt><trkpt lat="51.830285" lon="-1.837118"><ele>158.75</ele><time>2010-11-10T12:31:17Z</time></trkpt><trkpt lat="51.830398" lon="-1.837266"><ele>158.27</ele><time>2010-11-10T12:31:31Z</time></trkpt><trkpt lat="51.830467" lon="-1.837410"><ele>158.75</ele><time>2010-11-10T12:31:41Z</time></trkpt><trkpt lat="51.830538" lon="-1.837548"><ele>160.20</ele><time>2010-11-10T12:31:53Z</time></trkpt><trkpt lat="51.830624" lon="-1.837730"><ele>162.12</ele><time>2010-11-10T12:32:08Z</time></trkpt><trkpt lat="51.830735" lon="-1.837949"><ele>164.52</ele><time>2010-11-10T12:32:26Z</time></trkpt><trkpt lat="51.830810" lon="-1.838126"><ele>166.93</ele><time>2010-11-10T12:32:38Z</time></trkpt><trkpt lat="51.830890" lon="-1.838330"><ele>165.00</ele><time>2010-11-10T12:32:54Z</time></trkpt><trkpt lat="51.830935" lon="-1.838420"><ele>164.04</ele><time>2010-11-10T12:33:00Z</time></trkpt><trkpt lat="51.830974" lon="-1.838442"><ele>163.56</ele><time>2010-11-10T12:33:04Z</time></trkpt><trkpt lat="51.831064" lon="-1.838244"><ele>164.04</ele><time>2010-11-10T12:33:17Z</time></trkpt><trkpt lat="51.831074" lon="-1.838218"><ele>164.52</ele><time>2010-11-10T12:33:40Z</time></trkpt></trkseg></trk></gpx>